Terminal Aerodrome Forecast
Issued by NWS Amarillo, TX

Home | Current Version | Previous Version | Text Only | Print | Product List | Glossary On
Versions: 1 2 3 4 5 6 7 8 9 10 11 12 13 14 15 16
000
FTUS44 KAMA 231100
TAFGUY
TAF
KGUY 231121Z 2312/2412 20010KT P6SM BKN120
     FM231500 22018G30KT P6SM SCT090
     FM240100 18015KT P6SM OVC100=

USA.gov is the U.S. government's official web portal to all federal, state and local government web resources and services.